createdAt,value
2022-12-12T00:01:22.893Z,9
2022-12-12T00:11:30.248Z,8
2022-12-12T00:21:30.317Z,9
2022-12-12T00:31:36.263Z,9
2022-12-12T00:41:42.221Z,8
2022-12-12T00:51:48.750Z,9
2022-12-12T01:01:52.687Z,8
2022-12-12T01:11:59.752Z,7
2022-12-12T01:22:04.661Z,7
2022-12-12T01:32:10.651Z,6
2022-12-12T01:42:15.608Z,8
2022-12-12T01:52:22.415Z,9
2022-12-12T02:02:28.397Z,7
2022-12-12T02:12:35.329Z,7
2022-12-12T02:22:41.999Z,7
2022-12-12T02:32:46.430Z,5
2022-12-12T02:42:52.365Z,6
2022-12-12T02:52:59.838Z,7
2022-12-12T03:03:06.270Z,8
2022-12-12T03:13:13.202Z,17
2022-12-12T03:23:19.662Z,11
2022-12-12T03:33:26.023Z,8
2022-12-12T03:43:31.967Z,6
2022-12-12T03:53:37.758Z,6
2022-12-12T04:03:42.911Z,5
2022-12-12T04:13:47.567Z,9
2022-12-12T04:23:52.237Z,10
2022-12-12T04:33:57.208Z,13
2022-12-12T04:44:03.533Z,10
2022-12-12T04:54:10.513Z,11
2022-12-12T05:04:17.648Z,6
2022-12-12T05:14:24.893Z,8
2022-12-12T05:24:31.578Z,9
2022-12-12T05:34:36.204Z,7
2022-12-12T05:44:41.299Z,7
2022-12-12T05:54:45.657Z,5
2022-12-12T06:04:53.352Z,6
2022-12-12T06:14:59.471Z,6
2022-12-12T06:25:02.326Z,7
2022-12-12T06:35:09.352Z,6
2022-12-12T06:45:14.236Z,7
2022-12-12T06:55:20.770Z,6
2022-12-12T07:05:25.566Z,10
2022-12-12T07:15:30.294Z,14
2022-12-12T07:25:35.614Z,7
2022-12-12T07:35:40.472Z,12
2022-12-12T07:45:54.363Z,9
2022-12-12T07:55:54.792Z,7
2022-12-12T08:06:00.679Z,10
2022-12-12T08:16:07.223Z,9
2022-12-12T08:26:14.445Z,9
2022-12-12T08:36:20.237Z,6
2022-12-12T08:46:24.871Z,9
2022-12-12T08:56:30.934Z,7
2022-12-12T09:06:37.235Z,8
2022-12-12T09:16:43.551Z,10
2022-12-12T09:26:49.147Z,27
2022-12-12T09:36:53.692Z,8
2022-12-12T09:46:59.349Z,7
2022-12-12T09:57:06.373Z,11
2022-12-12T10:07:27.601Z,8
2022-12-12T10:17:27.983Z,6
2022-12-12T10:27:27.280Z,8
2022-12-12T10:37:32.401Z,7
2022-12-12T10:47:38.856Z,7
2022-12-12T10:57:50.835Z,7
2022-12-12T11:07:49.974Z,6
2022-12-12T11:17:55.529Z,8
2022-12-12T11:28:06.533Z,7
2022-12-12T11:38:07.450Z,10
2022-12-12T11:48:12.063Z,13
2022-12-12T11:58:17.039Z,10
2022-12-12T12:08:23.372Z,8
2022-12-12T12:18:28.952Z,9
2022-12-12T12:28:34.320Z,8
2022-12-12T12:38:38.765Z,6
2022-12-12T12:48:52.172Z,7
2022-12-12T12:58:50.554Z,7
2022-12-12T13:08:57.393Z,8
2022-12-12T13:19:16.810Z,14
2022-12-12T13:29:10.784Z,10
2022-12-12T13:39:17.293Z,7
2022-12-12T13:49:28.981Z,9
2022-12-12T13:59:26.850Z,7
2022-12-12T14:09:46.949Z,13
2022-12-12T14:19:43.411Z,17
2022-12-12T14:29:49.218Z,15
2022-12-12T14:39:55.490Z,13
2022-12-12T14:50:08.069Z,12
2022-12-12T15:00:13.105Z,14
2022-12-12T15:10:18.012Z,14
2022-12-12T15:20:22.979Z,15
2022-12-12T15:30:29.357Z,25
2022-12-12T15:40:35.295Z,19
2022-12-12T15:50:42.286Z,49
2022-12-12T16:00:47.697Z,24
2022-12-12T16:10:51.084Z,25
2022-12-12T16:21:02.660Z,24
2022-12-12T16:31:01.066Z,24
2022-12-12T16:41:07.350Z,25
2022-12-12T16:51:13.736Z,24
2022-12-12T17:01:17.881Z,14
2022-12-12T17:11:22.338Z,16
2022-12-12T17:21:28.035Z,27
2022-12-12T17:31:32.458Z,15
2022-12-12T17:41:39.237Z,28
2022-12-12T17:51:46.384Z,19
2022-12-12T18:02:10.550Z,19
2022-12-12T18:12:15.460Z,13
2022-12-12T18:22:49.461Z,13
2022-12-12T18:32:42.622Z,16
2022-12-12T18:42:47.209Z,15
2022-12-12T18:52:52.302Z,10
2022-12-12T19:02:57.610Z,12
2022-12-12T19:13:01.306Z,13
2022-12-12T19:23:40.062Z,16
2022-12-12T19:33:33.561Z,14
2022-12-12T19:43:38.672Z,13
2022-12-12T19:53:43.549Z,14
2022-12-12T20:03:50.430Z,14
2022-12-12T20:13:55.783Z,16
2022-12-12T20:24:16.003Z,16
2022-12-12T20:34:12.942Z,14
2022-12-12T20:44:19.598Z,15
2022-12-12T20:54:24.481Z,17
2022-12-12T21:04:30.672Z,18
2022-12-12T21:14:38.750Z,19
2022-12-12T21:24:44.567Z,27
2022-12-12T21:34:50.447Z,19
2022-12-12T21:44:55.720Z,25
2022-12-12T21:55:01.765Z,31
2022-12-12T22:05:06.884Z,27
2022-12-12T22:15:12.402Z,21
2022-12-12T22:25:18.599Z,20
2022-12-12T22:35:26.666Z,14
2022-12-12T22:45:29.270Z,32
2022-12-12T22:55:36.376Z,14
2022-12-12T23:05:40.630Z,18
2022-12-12T23:15:44.931Z,12
2022-12-12T23:25:48.654Z,19
2022-12-12T23:35:54.865Z,13
2022-12-12T23:46:00.136Z,13
2022-12-12T23:56:06.769Z,11
